sensor_id;sensor_type;location;lat;lon;timestamp;temperature;humidity
3727;DHT22;1879;45.876;12.300;2022-12-18T00:00:59;7.40;99.90
3727;DHT22;1879;45.876;12.300;2022-12-18T00:03:31;7.30;99.90
3727;DHT22;1879;45.876;12.300;2022-12-18T00:05:59;7.40;99.90
3727;DHT22;1879;45.876;12.300;2022-12-18T00:08:26;7.40;99.90
3727;DHT22;1879;45.876;12.300;2022-12-18T00:10:53;7.40;99.90
3727;DHT22;1879;45.876;12.300;2022-12-18T00:13:20;7.40;99.90
3727;DHT22;1879;45.876;12.300;2022-12-18T00:15:47;7.40;99.90
3727;DHT22;1879;45.876;12.300;2022-12-18T00:18:15;7.40;99.90
3727;DHT22;1879;45.876;12.300;2022-12-18T00:20:42;7.40;99.90
3727;DHT22;1879;45.876;12.300;2022-12-18T00:23:09;7.40;99.90
3727;DHT22;1879;45.876;12.300;2022-12-18T00:25:36;7.40;99.90
3727;DHT22;1879;45.876;12.300;2022-12-18T00:28:03;7.40;99.90
3727;DHT22;1879;45.876;12.300;2022-12-18T00:30:30;7.40;99.90
3727;DHT22;1879;45.876;12.300;2022-12-18T00:32:57;7.40;99.90
3727;DHT22;1879;45.876;12.300;2022-12-18T00:35:26;7.40;99.90
3727;DHT22;1879;45.876;12.300;2022-12-18T00:37:53;7.50;99.90
3727;DHT22;1879;45.876;12.300;2022-12-18T00:40:20;7.50;99.90
3727;DHT22;1879;45.876;12.300;2022-12-18T00:42:47;7.50;99.90
3727;DHT22;1879;45.876;12.300;2022-12-18T00:45:22;7.50;99.90
3727;DHT22;1879;45.876;12.300;2022-12-18T00:47:49;7.50;99.90
3727;DHT22;1879;45.876;12.300;2022-12-18T00:50:17;7.50;99.90
3727;DHT22;1879;45.876;12.300;2022-12-18T00:52:45;7.50;99.90
3727;DHT22;1879;45.876;12.300;2022-12-18T00:55:12;7.50;99.90
3727;DHT22;1879;45.876;12.300;2022-12-18T00:57:39;7.40;99.90
3727;DHT22;1879;45.876;12.300;2022-12-18T01:00:09;7.40;99.90
3727;DHT22;1879;45.876;12.300;2022-12-18T01:02:36;7.40;99.90
3727;DHT22;1879;45.876;12.300;2022-12-18T01:05:04;7.30;99.90
3727;DHT22;1879;45.876;12.300;2022-12-18T01:07:31;7.30;99.90
3727;DHT22;1879;45.876;12.300;2022-12-18T01:09:59;7.30;99.90
3727;DHT22;1879;45.876;12.300;2022-12-18T01:12:26;7.30;99.90
3727;DHT22;1879;45.876;12.300;2022-12-18T01:14:53;7.30;99.90
3727;DHT22;1879;45.876;12.300;2022-12-18T01:17:20;7.30;99.90
3727;DHT22;1879;45.876;12.300;2022-12-18T01:19:47;7.30;99.90
3727;DHT22;1879;45.876;12.300;2022-12-18T01:22:15;7.20;99.90
3727;DHT22;1879;45.876;12.300;2022-12-18T01:24:42;7.20;99.90
3727;DHT22;1879;45.876;12.300;2022-12-18T01:27:10;7.30;99.90
3727;DHT22;1879;45.876;12.300;2022-12-18T01:29:37;7.20;99.90
3727;DHT22;1879;45.876;12.300;2022-12-18T01:32:04;7.20;99.90
3727;DHT22;1879;45.876;12.300;2022-12-18T01:34:31;7.20;99.90
3727;DHT22;1879;45.876;12.300;2022-12-18T01:37:02;7.20;99.70
3727;DHT22;1879;45.876;12.300;2022-12-18T01:39:29;7.20;99.70
3727;DHT22;1879;45.876;12.300;2022-12-18T01:41:57;7.10;99.40
3727;DHT22;1879;45.876;12.300;2022-12-18T01:44:57;7.20;99.50
3727;DHT22;1879;45.876;12.300;2022-12-18T01:47:30;7.20;99.20
3727;DHT22;1879;45.876;12.300;2022-12-18T01:50:00;7.10;98.70
3727;DHT22;1879;45.876;12.300;2022-12-18T01:52:31;7.10;98.90
3727;DHT22;1879;45.876;12.300;2022-12-18T01:55:00;7.10;98.70
3727;DHT22;1879;45.876;12.300;2022-12-18T01:57:28;7.10;98.80
3727;DHT22;1879;45.876;12.300;2022-12-18T02:00:00;7.00;98.90
3727;DHT22;1879;45.876;12.300;2022-12-18T02:02:28;7.00;99.20
3727;DHT22;1879;45.876;12.300;2022-12-18T02:04:58;7.00;99.10
3727;DHT22;1879;45.876;12.300;2022-12-18T02:07:31;7.00;99.60
3727;DHT22;1879;45.876;12.300;2022-12-18T02:10:05;6.90;99.50
3727;DHT22;1879;45.876;12.300;2022-12-18T02:12:42;7.00;99.90
3727;DHT22;1879;45.876;12.300;2022-12-18T02:15:15;7.00;99.70
3727;DHT22;1879;45.876;12.300;2022-12-18T02:17:47;7.00;99.70
3727;DHT22;1879;45.876;12.300;2022-12-18T02:20:20;7.00;99.90
3727;DHT22;1879;45.876;12.300;2022-12-18T02:23:10;7.00;99.90
3727;DHT22;1879;45.876;12.300;2022-12-18T02:26:06;6.90;99.90
3727;DHT22;1879;45.876;12.300;2022-12-18T02:28:40;6.90;99.90
3727;DHT22;1879;45.876;12.300;2022-12-18T02:31:11;6.90;99.90
3727;DHT22;1879;45.876;12.300;2022-12-18T02:33:40;6.90;99.90
3727;DHT22;1879;45.876;12.300;2022-12-18T02:36:09;6.90;99.90
3727;DHT22;1879;45.876;12.300;2022-12-18T02:38:37;6.90;99.90
3727;DHT22;1879;45.876;12.300;2022-12-18T02:41:07;7.00;99.90
3727;DHT22;1879;45.876;12.300;2022-12-18T02:43:34;7.00;99.90
3727;DHT22;1879;45.876;12.300;2022-12-18T02:46:31;6.90;99.90
3727;DHT22;1879;45.876;12.300;2022-12-18T02:49:11;6.90;99.40
3727;DHT22;1879;45.876;12.300;2022-12-18T02:51:47;6.90;99.90
3727;DHT22;1879;45.876;12.300;2022-12-18T02:54:25;6.90;99.70
3727;DHT22;1879;45.876;12.300;2022-12-18T02:56:58;7.00;99.80
3727;DHT22;1879;45.876;12.300;2022-12-18T02:59:31;7.00;99.20
3727;DHT22;1879;45.876;12.300;2022-12-18T03:02:18;7.00;99.40
3727;DHT22;1879;45.876;12.300;2022-12-18T03:04:49;7.00;99.90
3727;DHT22;1879;45.876;12.300;2022-12-18T03:07:25;7.00;99.90
3727;DHT22;1879;45.876;12.300;2022-12-18T03:09:54;7.00;99.90
3727;DHT22;1879;45.876;12.300;2022-12-18T03:12:27;7.00;99.90
3727;DHT22;1879;45.876;12.300;2022-12-18T03:14:59;7.00;99.90
3727;DHT22;1879;45.876;12.300;2022-12-18T03:17:30;7.00;99.90
3727;DHT22;1879;45.876;12.300;2022-12-18T03:20:03;6.90;99.90
3727;DHT22;1879;45.876;12.300;2022-12-18T03:22:32;6.90;99.90
3727;DHT22;1879;45.876;12.300;2022-12-18T03:25:02;6.80;99.90
3727;DHT22;1879;45.876;12.300;2022-12-18T03:27:33;6.80;99.90
3727;DHT22;1879;45.876;12.300;2022-12-18T03:30:06;6.80;99.90
3727;DHT22;1879;45.876;12.300;2022-12-18T03:32:46;6.60;99.90
3727;DHT22;1879;45.876;12.300;2022-12-18T03:35:20;6.60;99.90
3727;DHT22;1879;45.876;12.300;2022-12-18T03:37:48;6.60;99.90
3727;DHT22;1879;45.876;12.300;2022-12-18T03:40:15;6.70;99.90
3727;DHT22;1879;45.876;12.300;2022-12-18T03:42:48;6.70;99.90
3727;DHT22;1879;45.876;12.300;2022-12-18T03:45:22;6.70;99.90
3727;DHT22;1879;45.876;12.300;2022-12-18T03:47:59;6.70;99.90
3727;DHT22;1879;45.876;12.300;2022-12-18T03:50:34;6.60;99.90
3727;DHT22;1879;45.876;12.300;2022-12-18T03:53:12;6.60;99.90
3727;DHT22;1879;45.876;12.300;2022-12-18T03:55:41;6.60;99.90
3727;DHT22;1879;45.876;12.300;2022-12-18T03:58:13;6.60;99.90
3727;DHT22;1879;45.876;12.300;2022-12-18T04:00:43;6.70;99.90
3727;DHT22;1879;45.876;12.300;2022-12-18T04:03:12;6.70;99.90
3727;DHT22;1879;45.876;12.300;2022-12-18T04:05:41;6.60;99.90
3727;DHT22;1879;45.876;12.300;2022-12-18T04:08:09;6.70;99.90
3727;DHT22;1879;45.876;12.300;2022-12-18T04:10:37;6.70;99.90
3727;DHT22;1879;45.876;12.300;2022-12-18T04:13:04;6.70;99.90
3727;DHT22;1879;45.876;12.300;2022-12-18T04:15:34;6.70;99.90
3727;DHT22;1879;45.876;12.300;2022-12-18T04:18:02;6.70;99.90
3727;DHT22;1879;45.876;12.300;2022-12-18T04:20:29;6.70;99.90
3727;DHT22;1879;45.876;12.300;2022-12-18T04:22:56;6.70;99.90
3727;DHT22;1879;45.876;12.300;2022-12-18T04:25:23;6.70;99.90
3727;DHT22;1879;45.876;12.300;2022-12-18T04:27:50;6.70;99.90
3727;DHT22;1879;45.876;12.300;2022-12-18T04:30:17;6.70;99.90
3727;DHT22;1879;45.876;12.300;2022-12-18T04:32:45;6.70;99.90
3727;DHT22;1879;45.876;12.300;2022-12-18T04:35:12;6.70;99.90
3727;DHT22;1879;45.876;12.300;2022-12-18T04:37:39;6.80;99.90
3727;DHT22;1879;45.876;12.300;2022-12-18T04:40:07;6.80;99.90
3727;DHT22;1879;45.876;12.300;2022-12-18T04:42:36;6.80;99.90
3727;DHT22;1879;45.876;12.300;2022-12-18T04:45:04;6.80;99.90
3727;DHT22;1879;45.876;12.300;2022-12-18T04:47:31;6.80;99.90
3727;DHT22;1879;45.876;12.300;2022-12-18T04:50:00;6.80;99.90
3727;DHT22;1879;45.876;12.300;2022-12-18T04:52:26;6.70;99.90
3727;DHT22;1879;45.876;12.300;2022-12-18T04:54:54;6.70;99.90
3727;DHT22;1879;45.876;12.300;2022-12-18T04:57:20;6.70;99.90
3727;DHT22;1879;45.876;12.300;2022-12-18T04:59:47;6.60;99.90
3727;DHT22;1879;45.876;12.300;2022-12-18T05:02:15;6.60;99.90
3727;DHT22;1879;45.876;12.300;2022-12-18T05:04:42;6.50;99.90
3727;DHT22;1879;45.876;12.300;2022-12-18T05:07:10;6.50;99.90
3727;DHT22;1879;45.876;12.300;2022-12-18T05:09:37;6.40;99.90
3727;DHT22;1879;45.876;12.300;2022-12-18T05:12:04;6.40;99.90
3727;DHT22;1879;45.876;12.300;2022-12-18T05:14:31;6.40;99.90
3727;DHT22;1879;45.876;12.300;2022-12-18T05:16:58;6.30;99.90
3727;DHT22;1879;45.876;12.300;2022-12-18T05:19:25;6.30;99.90
3727;DHT22;1879;45.876;12.300;2022-12-18T05:21:52;6.30;99.90
3727;DHT22;1879;45.876;12.300;2022-12-18T05:24:21;6.20;99.90
3727;DHT22;1879;45.876;12.300;2022-12-18T05:26:48;6.10;99.90
3727;DHT22;1879;45.876;12.300;2022-12-18T05:29:15;6.10;99.90
3727;DHT22;1879;45.876;12.300;2022-12-18T05:31:42;6.10;99.90
3727;DHT22;1879;45.876;12.300;2022-12-18T05:34:09;6.00;99.90
3727;DHT22;1879;45.876;12.300;2022-12-18T05:36:36;6.00;99.90
3727;DHT22;1879;45.876;12.300;2022-12-18T05:39:03;6.00;99.90
3727;DHT22;1879;45.876;12.300;2022-12-18T05:41:32;5.90;99.90
3727;DHT22;1879;45.876;12.300;2022-12-18T05:43:59;5.80;99.90
3727;DHT22;1879;45.876;12.300;2022-12-18T05:46:26;5.70;99.90
3727;DHT22;1879;45.876;12.300;2022-12-18T05:48:53;5.70;99.90
3727;DHT22;1879;45.876;12.300;2022-12-18T05:51:21;5.60;99.90
3727;DHT22;1879;45.876;12.300;2022-12-18T05:53:49;5.50;99.90
3727;DHT22;1879;45.876;12.300;2022-12-18T05:56:17;5.50;99.90
3727;DHT22;1879;45.876;12.300;2022-12-18T05:58:46;5.40;99.90
3727;DHT22;1879;45.876;12.300;2022-12-18T06:01:16;5.40;99.90
3727;DHT22;1879;45.876;12.300;2022-12-18T06:03:43;5.40;99.90
3727;DHT22;1879;45.876;12.300;2022-12-18T06:06:14;5.30;99.90
3727;DHT22;1879;45.876;12.300;2022-12-18T06:08:42;5.20;99.90
3727;DHT22;1879;45.876;12.300;2022-12-18T06:11:09;5.20;99.90
3727;DHT22;1879;45.876;12.300;2022-12-18T06:13:36;5.20;99.90
3727;DHT22;1879;45.876;12.300;2022-12-18T06:16:05;5.10;99.90
3727;DHT22;1879;45.876;12.300;2022-12-18T06:18:35;5.00;99.90
3727;DHT22;1879;45.876;12.300;2022-12-18T06:21:02;5.00;99.90
3727;DHT22;1879;45.876;12.300;2022-12-18T06:23:29;5.00;99.90
3727;DHT22;1879;45.876;12.300;2022-12-18T06:25:56;5.10;99.90
3727;DHT22;1879;45.876;12.300;2022-12-18T06:28:23;5.00;99.90
3727;DHT22;1879;45.876;12.300;2022-12-18T06:30:50;5.00;99.90
3727;DHT22;1879;45.876;12.300;2022-12-18T06:33:18;5.00;99.90
3727;DHT22;1879;45.876;12.300;2022-12-18T06:35:45;4.90;99.90
3727;DHT22;1879;45.876;12.300;2022-12-18T06:38:12;4.90;99.90
3727;DHT22;1879;45.876;12.300;2022-12-18T06:40:39;4.80;99.90
3727;DHT22;1879;45.876;12.300;2022-12-18T06:43:06;4.70;99.90
3727;DHT22;1879;45.876;12.300;2022-12-18T06:45:33;4.70;99.90
3727;DHT22;1879;45.876;12.300;2022-12-18T06:48:00;4.70;99.90
3727;DHT22;1879;45.876;12.300;2022-12-18T06:50:29;4.70;99.90
3727;DHT22;1879;45.876;12.300;2022-12-18T06:52:56;4.60;99.90
3727;DHT22;1879;45.876;12.300;2022-12-18T06:55:23;4.50;99.90
3727;DHT22;1879;45.876;12.300;2022-12-18T06:57:50;4.50;99.90
3727;DHT22;1879;45.876;12.300;2022-12-18T07:00:18;4.50;99.90
3727;DHT22;1879;45.876;12.300;2022-12-18T07:02:45;4.40;99.90
3727;DHT22;1879;45.876;12.300;2022-12-18T07:05:12;4.40;99.90
3727;DHT22;1879;45.876;12.300;2022-12-18T07:07:40;4.40;99.90
3727;DHT22;1879;45.876;12.300;2022-12-18T07:10:08;4.40;99.90
3727;DHT22;1879;45.876;12.300;2022-12-18T07:12:35;4.30;99.90
3727;DHT22;1879;45.876;12.300;2022-12-18T07:15:03;4.30;99.90
3727;DHT22;1879;45.876;12.300;2022-12-18T07:17:30;4.20;99.90
3727;DHT22;1879;45.876;12.300;2022-12-18T07:19:57;4.20;99.90
3727;DHT22;1879;45.876;12.300;2022-12-18T07:22:25;4.20;99.90
3727;DHT22;1879;45.876;12.300;2022-12-18T07:24:53;4.10;99.90
3727;DHT22;1879;45.876;12.300;2022-12-18T07:27:20;4.10;99.90
3727;DHT22;1879;45.876;12.300;2022-12-18T07:29:48;4.10;99.90
3727;DHT22;1879;45.876;12.300;2022-12-18T07:32:14;4.20;99.90
3727;DHT22;1879;45.876;12.300;2022-12-18T07:34:41;4.20;99.90
3727;DHT22;1879;45.876;12.300;2022-12-18T07:37:09;4.20;99.90
3727;DHT22;1879;45.876;12.300;2022-12-18T07:39:36;4.20;99.90
3727;DHT22;1879;45.876;12.300;2022-12-18T07:42:04;4.30;99.90
3727;DHT22;1879;45.876;12.300;2022-12-18T07:44:48;4.30;99.90
3727;DHT22;1879;45.876;12.300;2022-12-18T07:47:15;4.40;99.90
3727;DHT22;1879;45.876;12.300;2022-12-18T07:49:42;4.40;99.90
3727;DHT22;1879;45.876;12.300;2022-12-18T07:52:09;4.50;99.90
3727;DHT22;1879;45.876;12.300;2022-12-18T07:54:37;4.50;99.90
3727;DHT22;1879;45.876;12.300;2022-12-18T07:57:07;4.50;99.90
3727;DHT22;1879;45.876;12.300;2022-12-18T07:59:34;4.50;99.90
3727;DHT22;1879;45.876;12.300;2022-12-18T08:02:01;4.50;99.90
3727;DHT22;1879;45.876;12.300;2022-12-18T08:04:28;4.50;99.90
3727;DHT22;1879;45.876;12.300;2022-12-18T08:06:56;4.60;99.90
3727;DHT22;1879;45.876;12.300;2022-12-18T08:09:22;4.60;99.90
3727;DHT22;1879;45.876;12.300;2022-12-18T08:11:49;4.70;99.90
3727;DHT22;1879;45.876;12.300;2022-12-18T08:14:18;4.70;99.90
3727;DHT22;1879;45.876;12.300;2022-12-18T08:16:45;4.80;99.90
3727;DHT22;1879;45.876;12.300;2022-12-18T08:19:12;4.80;99.90
3727;DHT22;1879;45.876;12.300;2022-12-18T08:21:39;4.90;99.90
3727;DHT22;1879;45.876;12.300;2022-12-18T08:24:09;5.00;99.90
3727;DHT22;1879;45.876;12.300;2022-12-18T08:26:36;5.10;99.90
3727;DHT22;1879;45.876;12.300;2022-12-18T08:29:03;5.30;99.90
3727;DHT22;1879;45.876;12.300;2022-12-18T08:31:32;5.40;99.90
3727;DHT22;1879;45.876;12.300;2022-12-18T08:33:59;5.40;99.90
3727;DHT22;1879;45.876;12.300;2022-12-18T08:36:26;5.50;99.90
3727;DHT22;1879;45.876;12.300;2022-12-18T08:38:54;5.50;99.90
3727;DHT22;1879;45.876;12.300;2022-12-18T08:41:21;5.60;99.90
3727;DHT22;1879;45.876;12.300;2022-12-18T08:43:48;5.70;99.90
3727;DHT22;1879;45.876;12.300;2022-12-18T08:46:35;5.80;99.90
3727;DHT22;1879;45.876;12.300;2022-12-18T08:49:03;5.80;99.90
3727;DHT22;1879;45.876;12.300;2022-12-18T08:51:30;5.90;99.90
3727;DHT22;1879;45.876;12.300;2022-12-18T08:53:57;5.90;99.90
3727;DHT22;1879;45.876;12.300;2022-12-18T08:56:24;6.00;99.90
3727;DHT22;1879;45.876;12.300;2022-12-18T08:58:53;6.10;99.90
3727;DHT22;1879;45.876;12.300;2022-12-18T09:01:21;6.10;99.90
3727;DHT22;1879;45.876;12.300;2022-12-18T09:03:50;6.20;99.90
3727;DHT22;1879;45.876;12.300;2022-12-18T09:06:19;6.30;99.90
3727;DHT22;1879;45.876;12.300;2022-12-18T09:08:46;6.40;99.90
3727;DHT22;1879;45.876;12.300;2022-12-18T09:11:17;6.40;99.90
3727;DHT22;1879;45.876;12.300;2022-12-18T09:13:44;6.50;99.90
3727;DHT22;1879;45.876;12.300;2022-12-18T09:16:11;6.50;99.90
3727;DHT22;1879;45.876;12.300;2022-12-18T09:18:39;6.50;99.90
3727;DHT22;1879;45.876;12.300;2022-12-18T09:21:11;6.60;99.90
3727;DHT22;1879;45.876;12.300;2022-12-18T09:23:39;6.70;99.90
3727;DHT22;1879;45.876;12.300;2022-12-18T09:26:06;6.70;99.90
3727;DHT22;1879;45.876;12.300;2022-12-18T09:28:33;6.80;99.90
3727;DHT22;1879;45.876;12.300;2022-12-18T09:31:04;6.80;99.90
3727;DHT22;1879;45.876;12.300;2022-12-18T09:33:32;6.90;99.90
3727;DHT22;1879;45.876;12.300;2022-12-18T09:36:01;7.00;99.90
3727;DHT22;1879;45.876;12.300;2022-12-18T09:38:30;7.00;99.90
3727;DHT22;1879;45.876;12.300;2022-12-18T09:41:00;7.00;99.90
3727;DHT22;1879;45.876;12.300;2022-12-18T09:43:33;7.00;99.90
3727;DHT22;1879;45.876;12.300;2022-12-18T09:46:04;7.10;99.90
3727;DHT22;1879;45.876;12.300;2022-12-18T09:48:35;7.20;99.90
3727;DHT22;1879;45.876;12.300;2022-12-18T09:51:08;7.30;99.90
3727;DHT22;1879;45.876;12.300;2022-12-18T09:53:39;7.40;99.90
3727;DHT22;1879;45.876;12.300;2022-12-18T09:56:11;7.40;99.90
3727;DHT22;1879;45.876;12.300;2022-12-18T09:58:43;7.30;99.90
3727;DHT22;1879;45.876;12.300;2022-12-18T10:01:12;7.40;99.90
3727;DHT22;1879;45.876;12.300;2022-12-18T10:03:41;7.50;99.90
3727;DHT22;1879;45.876;12.300;2022-12-18T10:06:14;7.50;99.90
3727;DHT22;1879;45.876;12.300;2022-12-18T10:08:48;7.60;99.90
3727;DHT22;1879;45.876;12.300;2022-12-18T10:11:38;7.70;99.90
3727;DHT22;1879;45.876;12.300;2022-12-18T10:14:12;7.80;99.90
3727;DHT22;1879;45.876;12.300;2022-12-18T10:16:49;7.80;99.90
3727;DHT22;1879;45.876;12.300;2022-12-18T10:19:27;7.90;99.90
3727;DHT22;1879;45.876;12.300;2022-12-18T10:24:35;8.10;98.70
3727;DHT22;1879;45.876;12.300;2022-12-18T10:27:12;8.20;98.60
3727;DHT22;1879;45.876;12.300;2022-12-18T10:29:41;8.30;98.20
3727;DHT22;1879;45.876;12.300;2022-12-18T10:32:14;8.40;98.30
3727;DHT22;1879;45.876;12.300;2022-12-18T10:34:44;8.40;96.90
3727;DHT22;1879;45.876;12.300;2022-12-18T10:37:16;8.40;96.80
3727;DHT22;1879;45.876;12.300;2022-12-18T10:39:44;8.50;97.10
3727;DHT22;1879;45.876;12.300;2022-12-18T10:42:17;8.50;96.70
3727;DHT22;1879;45.876;12.300;2022-12-18T10:44:44;8.50;96.60
3727;DHT22;1879;45.876;12.300;2022-12-18T10:47:14;8.60;96.80
3727;DHT22;1879;45.876;12.300;2022-12-18T10:49:47;8.70;96.00
3727;DHT22;1879;45.876;12.300;2022-12-18T10:52:17;8.70;96.20
3727;DHT22;1879;45.876;12.300;2022-12-18T10:54:53;8.80;96.10
3727;DHT22;1879;45.876;12.300;2022-12-18T10:57:33;8.80;95.50
3727;DHT22;1879;45.876;12.300;2022-12-18T11:00:21;8.80;95.40
3727;DHT22;1879;45.876;12.300;2022-12-18T11:02:49;8.90;95.10
3727;DHT22;1879;45.876;12.300;2022-12-18T11:05:27;8.90;95.10
3727;DHT22;1879;45.876;12.300;2022-12-18T11:07:55;9.00;95.00
3727;DHT22;1879;45.876;12.300;2022-12-18T11:10:28;9.10;95.00
3727;DHT22;1879;45.876;12.300;2022-12-18T11:13:10;9.30;94.30
3727;DHT22;1879;45.876;12.300;2022-12-18T11:15:40;9.60;93.60
3727;DHT22;1879;45.876;12.300;2022-12-18T11:18:16;9.90;93.50
3727;DHT22;1879;45.876;12.300;2022-12-18T11:20:51;10.50;93.20
3727;DHT22;1879;45.876;12.300;2022-12-18T11:25:56;12.70;99.90
3727;DHT22;1879;45.876;12.300;2022-12-18T11:28:38;14.20;84.50
3727;DHT22;1879;45.876;12.300;2022-12-18T11:31:27;15.90;94.70
3727;DHT22;1879;45.876;12.300;2022-12-18T11:34:01;17.30;69.20
3727;DHT22;1879;45.876;12.300;2022-12-18T11:36:33;18.40;66.90
3727;DHT22;1879;45.876;12.300;2022-12-18T11:39:07;19.40;62.20
3727;DHT22;1879;45.876;12.300;2022-12-18T11:41:42;20.10;58.90
3727;DHT22;1879;45.876;12.300;2022-12-18T11:44:35;20.60;55.50
3727;DHT22;1879;45.876;12.300;2022-12-18T11:47:09;20.90;51.90
3727;DHT22;1879;45.876;12.300;2022-12-18T11:49:41;21.30;51.70
3727;DHT22;1879;45.876;12.300;2022-12-18T11:52:14;21.50;50.80
3727;DHT22;1879;45.876;12.300;2022-12-18T11:54:43;21.30;48.50
3727;DHT22;1879;45.876;12.300;2022-12-18T12:02:42;22.60;45.50
3727;DHT22;1879;45.876;12.300;2022-12-18T12:05:25;22.80;44.30
3727;DHT22;1879;45.876;12.300;2022-12-18T12:08:00;23.00;43.50
3727;DHT22;1879;45.876;12.300;2022-12-18T12:10:40;23.10;42.80
3727;DHT22;1879;45.876;12.300;2022-12-18T12:13:20;23.00;41.50
3727;DHT22;1879;45.876;12.300;2022-12-18T12:16:00;22.40;42.00
3727;DHT22;1879;45.876;12.300;2022-12-18T12:18:34;22.60;43.30
3727;DHT22;1879;45.876;12.300;2022-12-18T12:21:09;23.00;43.20
3727;DHT22;1879;45.876;12.300;2022-12-18T12:23:43;23.80;42.90
3727;DHT22;1879;45.876;12.300;2022-12-18T12:26:20;24.40;41.80
3727;DHT22;1879;45.876;12.300;2022-12-18T12:29:01;24.80;40.70
3727;DHT22;1879;45.876;12.300;2022-12-18T12:31:41;25.40;40.20
3727;DHT22;1879;45.876;12.300;2022-12-18T12:34:17;25.70;40.20
3727;DHT22;1879;45.876;12.300;2022-12-18T12:37:04;24.70;37.70
3727;DHT22;1879;45.876;12.300;2022-12-18T12:39:36;24.90;39.80
3727;DHT22;1879;45.876;12.300;2022-12-18T12:42:04;25.10;38.80
3727;DHT22;1879;45.876;12.300;2022-12-18T12:44:54;25.40;38.30
3727;DHT22;1879;45.876;12.300;2022-12-18T12:47:26;25.50;37.80
3727;DHT22;1879;45.876;12.300;2022-12-18T12:49:55;25.60;37.40
3727;DHT22;1879;45.876;12.300;2022-12-18T12:52:29;25.60;37.90
3727;DHT22;1879;45.876;12.300;2022-12-18T12:54:58;25.60;38.10
3727;DHT22;1879;45.876;12.300;2022-12-18T12:57:31;25.40;39.20
3727;DHT22;1879;45.876;12.300;2022-12-18T13:00:07;24.40;37.60
3727;DHT22;1879;45.876;12.300;2022-12-18T13:02:42;23.50;38.40
3727;DHT22;1879;45.876;12.300;2022-12-18T13:05:18;22.30;39.20
3727;DHT22;1879;45.876;12.300;2022-12-18T13:07:51;21.10;39.40
3727;DHT22;1879;45.876;12.300;2022-12-18T13:10:34;19.60;40.30
3727;DHT22;1879;45.876;12.300;2022-12-18T13:13:04;18.40;41.50
3727;DHT22;1879;45.876;12.300;2022-12-18T13:15:38;17.50;42.70
3727;DHT22;1879;45.876;12.300;2022-12-18T13:18:14;16.90;44.00
3727;DHT22;1879;45.876;12.300;2022-12-18T13:20:44;17.00;44.90
3727;DHT22;1879;45.876;12.300;2022-12-18T13:23:32;17.60;45.10
3727;DHT22;1879;45.876;12.300;2022-12-18T13:26:30;17.50;44.30
3727;DHT22;1879;45.876;12.300;2022-12-18T13:28:58;17.30;45.50
3727;DHT22;1879;45.876;12.300;2022-12-18T13:34:35;17.00;46.70
3727;DHT22;1879;45.876;12.300;2022-12-18T13:37:39;17.00;46.50
3727;DHT22;1879;45.876;12.300;2022-12-18T13:43:24;17.50;45.30
3727;DHT22;1879;45.876;12.300;2022-12-18T13:46:03;17.40;46.30
3727;DHT22;1879;45.876;12.300;2022-12-18T13:48:33;16.90;46.30
3727;DHT22;1879;45.876;12.300;2022-12-18T13:51:04;16.60;47.50
3727;DHT22;1879;45.876;12.300;2022-12-18T13:53:36;16.70;46.60
3727;DHT22;1879;45.876;12.300;2022-12-18T13:56:05;17.50;47.10
3727;DHT22;1879;45.876;12.300;2022-12-18T13:58:32;18.20;46.20
3727;DHT22;1879;45.876;12.300;2022-12-18T14:00:59;18.90;45.50
3727;DHT22;1879;45.876;12.300;2022-12-18T14:03:29;19.60;44.20
3727;DHT22;1879;45.876;12.300;2022-12-18T14:06:03;19.60;43.50
3727;DHT22;1879;45.876;12.300;2022-12-18T14:08:38;20.10;43.50
3727;DHT22;1879;45.876;12.300;2022-12-18T14:11:06;20.60;71.30
3727;DHT22;1879;45.876;12.300;2022-12-18T14:13:37;21.20;43.30
3727;DHT22;1879;45.876;12.300;2022-12-18T14:16:07;21.00;42.50
3727;DHT22;1879;45.876;12.300;2022-12-18T14:18:42;20.90;42.80
3727;DHT22;1879;45.876;12.300;2022-12-18T14:21:21;21.10;42.40
3727;DHT22;1879;45.876;12.300;2022-12-18T14:23:48;21.20;41.90
3727;DHT22;1879;45.876;12.300;2022-12-18T14:26:24;20.90;41.90
3727;DHT22;1879;45.876;12.300;2022-12-18T14:28:54;20.40;42.50
3727;DHT22;1879;45.876;12.300;2022-12-18T14:31:22;19.70;42.90
3727;DHT22;1879;45.876;12.300;2022-12-18T14:33:50;18.90;43.30
3727;DHT22;1879;45.876;12.300;2022-12-18T14:36:20;18.10;44.00
3727;DHT22;1879;45.876;12.300;2022-12-18T14:38:50;17.20;44.80
3727;DHT22;1879;45.876;12.300;2022-12-18T14:41:18;16.70;45.60
3727;DHT22;1879;45.876;12.300;2022-12-18T14:43:47;16.40;47.10
3727;DHT22;1879;45.876;12.300;2022-12-18T14:49:02;15.30;86.60
3727;DHT22;1879;45.876;12.300;2022-12-18T14:51:32;14.60;73.00
3727;DHT22;1879;45.876;12.300;2022-12-18T14:54:01;13.90;49.20
3727;DHT22;1879;45.876;12.300;2022-12-18T14:56:30;13.20;50.10
3727;DHT22;1879;45.876;12.300;2022-12-18T14:59:00;12.60;51.10
3727;DHT22;1879;45.876;12.300;2022-12-18T15:01:31;12.20;52.20
3727;DHT22;1879;45.876;12.300;2022-12-18T15:04:00;11.80;53.80
3727;DHT22;1879;45.876;12.300;2022-12-18T15:06:32;11.50;54.10
3727;DHT22;1879;45.876;12.300;2022-12-18T15:09:01;11.10;55.10
3727;DHT22;1879;45.876;12.300;2022-12-18T15:11:33;10.80;56.80
3727;DHT22;1879;45.876;12.300;2022-12-18T15:14:32;10.60;57.70
3727;DHT22;1879;45.876;12.300;2022-12-18T15:17:03;10.30;59.80
3727;DHT22;1879;45.876;12.300;2022-12-18T15:19:40;10.00;61.10
3727;DHT22;1879;45.876;12.300;2022-12-18T15:22:21;9.80;64.30
3727;DHT22;1879;45.876;12.300;2022-12-18T15:24:48;9.70;66.70
3727;DHT22;1879;45.876;12.300;2022-12-18T15:27:23;9.50;68.00
3727;DHT22;1879;45.876;12.300;2022-12-18T15:30:19;9.30;70.80
3727;DHT22;1879;45.876;12.300;2022-12-18T15:32:47;9.20;73.70
3727;DHT22;1879;45.876;12.300;2022-12-18T15:35:17;9.00;77.70
3727;DHT22;1879;45.876;12.300;2022-12-18T15:37:46;8.90;82.00
3727;DHT22;1879;45.876;12.300;2022-12-18T15:40:14;8.80;84.30
3727;DHT22;1879;45.876;12.300;2022-12-18T15:42:41;8.70;87.60
3727;DHT22;1879;45.876;12.300;2022-12-18T15:45:26;8.60;90.30
3727;DHT22;1879;45.876;12.300;2022-12-18T15:47:53;8.50;91.90
3727;DHT22;1879;45.876;12.300;2022-12-18T15:50:21;8.40;92.70
3727;DHT22;1879;45.876;12.300;2022-12-18T15:52:53;8.30;93.10
3727;DHT22;1879;45.876;12.300;2022-12-18T15:55:22;8.20;93.80
3727;DHT22;1879;45.876;12.300;2022-12-18T15:58:03;8.10;94.10
3727;DHT22;1879;45.876;12.300;2022-12-18T16:00:30;8.10;94.60
3727;DHT22;1879;45.876;12.300;2022-12-18T16:02:58;8.00;95.40
3727;DHT22;1879;45.876;12.300;2022-12-18T16:05:26;8.00;95.70
3727;DHT22;1879;45.876;12.300;2022-12-18T16:07:55;8.00;96.50
3727;DHT22;1879;45.876;12.300;2022-12-18T16:10:22;7.90;97.10
3727;DHT22;1879;45.876;12.300;2022-12-18T16:12:49;7.80;98.10
3727;DHT22;1879;45.876;12.300;2022-12-18T16:15:16;7.80;99.40
3727;DHT22;1879;45.876;12.300;2022-12-18T16:17:44;7.70;99.90
3727;DHT22;1879;45.876;12.300;2022-12-18T16:20:13;7.60;99.90
3727;DHT22;1879;45.876;12.300;2022-12-18T16:22:42;7.50;99.90
3727;DHT22;1879;45.876;12.300;2022-12-18T16:25:17;7.40;99.90
3727;DHT22;1879;45.876;12.300;2022-12-18T16:27:44;7.40;99.90
3727;DHT22;1879;45.876;12.300;2022-12-18T16:30:13;7.30;99.90
3727;DHT22;1879;45.876;12.300;2022-12-18T16:32:41;7.20;99.90
3727;DHT22;1879;45.876;12.300;2022-12-18T16:35:10;7.10;99.90
3727;DHT22;1879;45.876;12.300;2022-12-18T16:37:37;7.10;99.90
3727;DHT22;1879;45.876;12.300;2022-12-18T16:40:06;7.00;99.90